This is the latest recevied weather packets stored in our database for station/object KQ7A. If no packets are shown the sender has not sent any weather packets the latest 10 day(s).
| Time | Temp. | Humidity | Pressure | Rain* | Wind** | Luminosity | Snow |
|---|---|---|---|---|---|---|---|
| 1777727772 | 6.11° C | 68% | 1017.1 hPa | 0 mm | - | 6 W/m² | - |
| 1777727470 | 6.11° C | 67% | 1016.9 hPa | 0 mm | - | 5 W/m² | - |
| 1777727167 | 6.11° C | 67% | 1016.9 hPa | 0 mm | - | 2 W/m² | - |
| 1777726865 | 6.67° C | 65% | 1016.8 hPa | 0 mm | - | 0 W/m² | - |
| 1777726560 | 7.78° C | 60% | 1016.7 hPa | 0 mm | - | 0 W/m² | - |
| 1777726258 | 7.22° C | 59% | 1016.6 hPa | 0 mm | - | 0 W/m² | - |
| 1777725954 | 7.22° C | 58% | 1016.8 hPa | 0 mm | - | 0 W/m² | - |
| 1777725652 | 6.11° C | 63% | 1016.8 hPa | 0 mm | - | 0 W/m² | - |
| 1777725350 | 6.11° C | 64% | 1016.8 hPa | 0 mm | - | 0 W/m² | - |
| 1777725046 | 6.67° C | 63% | 1016.9 hPa | 0 mm | - | 0 W/m² | - |
| 1777724743 | 6.67° C | 62% | 1016.6 hPa | 0 mm | - | 0 W/m² | - |
| 1777724440 | 6.67° C | 62% | 1016.7 hPa | 0 mm | - | 0 W/m² | - |
| 1777724138 | 7.78° C | 59% | 1016.7 hPa | 0 mm | - | 0 W/m² | - |
| 1777723835 | 7.22° C | 58% | 1016.7 hPa | 0 mm | - | 0 W/m² | - |
| 1777723531 | 7.78° C | 58% | 1016.6 hPa | 0 mm | - | 0 W/m² | - |
| 1777723228 | 7.22° C | 60% | 1016.8 hPa | 0 mm | - | 0 W/m² | - |
| 1777722926 | 7.78° C | 58% | 1016.8 hPa | 0 mm | - | 0 W/m² | - |
| 1777722622 | 7.78° C | 56% | 1016.9 hPa | 0 mm | - | 0 W/m² | - |
| 1777722319 | 7.78° C | 57% | 1016.9 hPa | 0 mm | - | 0 W/m² | - |
| 1777722015 | 7.78° C | 61% | 1016.8 hPa | 0 mm | - | 0 W/m² | - |
| 1777721713 | 7.78° C | 58% | 1016.9 hPa | 0 mm | - | 0 W/m² | - |
| 1777721412 | 7.22° C | 60% | 1016.9 hPa | 0 mm | - | 0 W/m² | - |
| 1777721109 | 7.22° C | 58% | 1016.8 hPa | 0 mm | - | 0 W/m² | - |
| 1777720806 | 7.78° C | 58% | 1017 hPa | 0 mm | - | 0 W/m² | - |
| 1777720504 | 7.78° C | 58% | 1016.9 hPa | 0 mm | - | 0 W/m² | - |
* Rain latest hour (hover to see other rain measurements)
** Current wind speed in m/s (hover to see current wind gust speed)